Time,TemperatureF,DewpointF,PressureIn,WindDirection,WindDirectionDegrees,WindSpeedMPH,WindSpeedGustMPH,Humidity,HourlyPrecipIn,Conditions,Clouds,dailyrainin,SoftwareType,DateUTC
2013-05-11 00:03:00,62.2,53.1,29.88,North,-999,0.0,0.0,72,0.00,,,-99.99,FreeWX 2.04,2013-05-11 04:03:00,
2013-05-11 00:13:00,62.1,52.9,29.88,North,-999,0.0,0.0,72,0.00,,,-99.99,FreeWX 2.04,2013-05-11 04:13:00,
2013-05-11 00:23:00,62.1,52.9,29.88,North,-999,0.0,2.7,72,0.00,,,-99.99,FreeWX 2.04,2013-05-11 04:23:00,
2013-05-11 00:33:00,62.1,52.9,29.88,North,-999,0.0,0.0,72,0.00,,,-99.99,FreeWX 2.04,2013-05-11 04:33:00,
2013-05-11 00:43:00,62.1,52.9,29.88,North,-999,0.0,0.0,72,0.00,,,-99.99,FreeWX 2.04,2013-05-11 04:43:00,
2013-05-11 00:53:00,61.9,52.7,29.88,North,-999,0.0,2.7,72,0.00,,,-99.99,FreeWX 2.04,2013-05-11 04:53:00,
2013-05-11 01:03:00,61.9,52.7,29.88,North,-999,0.0,0.0,72,0.00,,,-99.99,FreeWX 2.04,2013-05-11 05:03:00,
2013-05-11 01:13:00,61.9,52.7,29.88,North,-999,0.0,3.6,72,0.00,,,-99.99,FreeWX 2.04,2013-05-11 05:13:00,
2013-05-11 01:23:00,61.9,53.1,29.88,North,-999,0.0,0.0,73,0.00,,,-99.99,FreeWX 2.04,2013-05-11 05:23:00,
2013-05-11 01:33:00,61.9,53.1,29.88,North,-999,0.0,0.0,73,0.00,,,-99.99,FreeWX 2.04,2013-05-11 05:33:00,
2013-05-11 01:43:00,61.7,52.9,29.88,North,-999,0.0,0.0,73,0.00,,,-99.99,FreeWX 2.04,2013-05-11 05:43:00,
2013-05-11 01:53:00,61.7,52.9,29.85,North,-999,0.0,0.0,73,0.00,,,-99.99,FreeWX 2.04,2013-05-11 05:53:00,
2013-05-11 02:03:00,61.7,52.9,29.85,North,-999,0.0,0.0,73,0.00,,,-99.99,FreeWX 2.04,2013-05-11 06:03:00,
2013-05-11 02:13:00,61.7,53.2,29.85,North,-999,0.0,0.0,74,0.00,,,-99.99,FreeWX 2.04,2013-05-11 06:13:00,
2013-05-11 02:23:00,61.7,53.2,29.85,North,-999,0.0,3.6,74,0.00,,,-99.99,FreeWX 2.04,2013-05-11 06:23:00,
2013-05-11 02:33:00,61.7,52.9,29.85,North,-999,0.0,2.7,73,0.00,,,-99.99,FreeWX 2.04,2013-05-11 06:33:00,
2013-05-11 02:43:00,61.7,53.2,29.85,North,-999,0.0,2.7,74,0.00,,,-99.99,FreeWX 2.04,2013-05-11 06:43:00,
2013-05-11 02:53:00,61.7,53.2,29.85,North,-999,0.0,4.5,74,0.00,,,-99.99,FreeWX 2.04,2013-05-11 06:53:00,
2013-05-11 03:03:00,61.7,53.2,29.85,North,-999,0.0,0.0,74,0.00,,,-99.99,FreeWX 2.04,2013-05-11 07:03:00,
2013-05-11 03:13:00,61.7,53.2,29.85,NE,40,1.0,4.5,74,0.00,,,-99.99,FreeWX 2.04,2013-05-11 07:13:00,
2013-05-11 03:23:00,61.7,53.2,29.85,North,-999,0.0,3.6,74,0.00,,,-99.99,FreeWX 2.04,2013-05-11 07:23:00,
2013-05-11 03:33:00,61.7,53.2,29.85,North,-999,0.0,0.0,74,0.00,,,-99.99,FreeWX 2.04,2013-05-11 07:33:00,
2013-05-11 03:43:00,61.7,53.8,29.85,North,-999,0.0,4.5,75,0.00,,,-99.99,FreeWX 2.04,2013-05-11 07:43:00,
2013-05-11 03:53:00,61.7,53.8,29.85,North,-999,0.0,4.0,75,0.00,,,-99.99,FreeWX 2.04,2013-05-11 07:53:00,
2013-05-11 04:03:00,61.7,53.8,29.85,North,-999,0.0,2.7,75,0.00,,,-99.99,FreeWX 2.04,2013-05-11 08:03:00,
2013-05-11 04:13:00,61.7,53.8,29.85,North,-999,0.0,4.5,75,0.00,,,-99.99,FreeWX 2.04,2013-05-11 08:13:00,
2013-05-11 04:23:00,61.7,53.8,29.85,North,-999,0.0,6.3,75,0.00,,,-99.99,FreeWX 2.04,2013-05-11 08:23:00,
2013-05-11 04:33:00,61.7,53.8,29.85,North,-999,0.0,4.9,75,0.00,,,-99.99,FreeWX 2.04,2013-05-11 08:33:00,
2013-05-11 04:43:00,61.7,53.8,29.85,North,-999,0.0,4.5,75,0.00,,,-99.99,FreeWX 2.04,2013-05-11 08:43:00,
2013-05-11 04:53:00,61.9,54.1,29.85,North,353,1.0,6.3,76,0.04,,,-99.99,FreeWX 2.04,2013-05-11 08:53:00,
2013-05-11 05:03:00,61.9,54.1,29.82,North,-999,0.0,4.0,76,0.04,,,-99.99,FreeWX 2.04,2013-05-11 09:03:00,
2013-05-11 05:13:00,61.9,54.1,29.82,North,-999,0.0,6.9,76,0.04,,,-99.99,FreeWX 2.04,2013-05-11 09:13:00,
2013-05-11 05:23:00,61.9,54.1,29.82,North,-999,0.0,5.4,76,0.04,,,-99.99,FreeWX 2.04,2013-05-11 09:23:00,
2013-05-11 05:33:00,61.7,54.1,29.82,North,-999,0.0,3.1,76,0.04,,,-99.99,FreeWX 2.04,2013-05-11 09:33:00,
2013-05-11 05:43:00,61.5,54.0,29.82,North,-999,0.0,0.0,76,0.04,,,-99.99,FreeWX 2.04,2013-05-11 09:43:00,
2013-05-11 05:53:00,61.7,54.1,29.82,North,-999,0.0,5.4,76,0.00,,,-99.99,FreeWX 2.04,2013-05-11 09:53:00,
2013-05-11 06:03:00,61.5,54.0,29.82,North,-999,0.0,3.1,76,0.00,,,-99.99,FreeWX 2.04,2013-05-11 10:03:00,
2013-05-11 06:13:00,61.5,54.0,29.82,North,-999,0.0,4.9,76,0.00,,,-99.99,FreeWX 2.04,2013-05-11 10:13:00,
2013-05-11 06:24:00,61.5,54.3,29.82,NE,54,1.0,5.4,77,0.00,,,-99.99,FreeWX 2.04,2013-05-11 10:24:00,
2013-05-11 06:34:00,61.5,54.3,29.82,North,-999,0.0,4.0,77,0.00,,,-99.99,FreeWX 2.04,2013-05-11 10:34:00,
2013-05-11 06:44:00,61.5,54.3,29.82,North,-999,0.0,6.3,77,0.00,,,-99.99,FreeWX 2.04,2013-05-11 10:44:00,
2013-05-11 06:54:00,61.5,54.3,29.85,North,-999,0.0,3.6,77,0.00,,,-99.99,FreeWX 2.04,2013-05-11 10:54:00,
2013-05-11 07:04:00,61.5,54.3,29.85,North,-999,0.0,3.1,77,0.00,,,-99.99,FreeWX 2.04,2013-05-11 11:04:00,
2013-05-11 07:14:00,61.5,54.3,29.85,North,-999,0.0,4.5,77,0.00,,,-99.99,FreeWX 2.04,2013-05-11 11:14:00,
2013-05-11 07:24:00,61.3,54.1,29.85,North,-999,0.0,4.0,77,0.00,,,-99.99,FreeWX 2.04,2013-05-11 11:24:00,
2013-05-11 07:34:00,61.3,54.1,29.85,North,-999,0.0,4.0,77,0.00,,,-99.99,FreeWX 2.04,2013-05-11 11:34:00,
2013-05-11 07:44:00,61.3,54.1,29.85,North,-999,0.0,3.1,77,0.00,,,-99.99,FreeWX 2.04,2013-05-11 11:44:00,
2013-05-11 07:54:00,61.3,54.1,29.85,North,-999,0.0,3.1,77,0.00,,,-99.99,FreeWX 2.04,2013-05-11 11:54:00,
2013-05-11 08:04:00,61.0,53.8,29.85,North,-999,0.0,0.0,77,0.00,,,-99.99,FreeWX 2.04,2013-05-11 12:04:00,
2013-05-11 08:14:00,60.8,53.6,29.85,North,-999,0.0,3.6,77,0.00,,,-99.99,FreeWX 2.04,2013-05-11 12:14:00,
2013-05-11 08:24:00,60.6,53.4,29.85,North,-999,0.0,4.0,77,0.00,,,-99.99,FreeWX 2.04,2013-05-11 12:24:00,
2013-05-11 08:34:00,60.4,52.9,29.88,North,-999,0.0,4.5,76,0.00,,,-99.99,FreeWX 2.04,2013-05-11 12:34:00,
2013-05-11 08:44:00,60.4,52.9,29.88,North,-999,0.0,4.9,76,0.00,,,-99.99,FreeWX 2.04,2013-05-11 12:44:00,
2013-05-11 08:54:00,60.8,53.6,29.88,North,-999,0.0,4.0,77,0.00,,,-99.99,FreeWX 2.04,2013-05-11 12:54:00,
2013-05-11 09:04:00,61.0,53.4,29.85,North,-999,0.0,0.0,76,0.00,,,-99.99,FreeWX 2.04,2013-05-11 13:04:00,
2013-05-11 09:14:00,61.2,53.6,29.85,North,-999,0.0,4.5,76,0.00,,,-99.99,FreeWX 2.04,2013-05-11 13:14:00,
2013-05-11 09:24:00,61.7,54.1,29.88,North,-999,0.0,6.7,76,0.00,,,-99.99,FreeWX 2.04,2013-05-11 13:24:00,
2013-05-11 09:34:00,62.1,54.0,29.88,North,-999,0.0,3.6,75,0.00,,,-99.99,FreeWX 2.04,2013-05-11 13:34:00,
2013-05-11 09:44:00,61.5,52.7,29.88,North,-999,0.0,4.5,73,0.00,,,-99.99,FreeWX 2.04,2013-05-11 13:44:00,
2013-05-11 09:54:00,61.3,52.2,29.88,North,-999,0.0,0.0,72,0.00,,,-99.99,FreeWX 2.04,2013-05-11 13:54:00,
2013-05-11 10:04:00,61.3,52.2,29.88,North,-999,0.0,0.0,72,0.00,,,-99.99,FreeWX 2.04,2013-05-11 14:04:00,
2013-05-11 10:14:00,61.5,52.0,29.88,North,-999,0.0,4.5,71,0.00,,,-99.99,FreeWX 2.04,2013-05-11 14:14:00,
2013-05-11 10:24:00,61.5,52.0,29.88,North,-999,0.0,4.0,71,0.00,,,-99.99,FreeWX 2.04,2013-05-11 14:24:00,
2013-05-11 10:34:00,61.5,51.6,29.88,NNW,346,1.0,4.9,70,0.00,,,-99.99,FreeWX 2.04,2013-05-11 14:34:00,
2013-05-11 10:44:00,61.7,51.8,29.88,North,-999,0.0,4.0,70,0.00,,,-99.99,FreeWX 2.04,2013-05-11 14:44:00,
2013-05-11 10:54:00,61.3,51.1,29.88,North,-999,0.0,3.6,69,0.00,,,-99.99,FreeWX 2.04,2013-05-11 14:54:00,
2013-05-11 11:04:00,61.0,50.4,29.88,North,-999,0.0,3.1,68,0.00,,,-99.99,FreeWX 2.04,2013-05-11 15:04:00,
2013-05-11 11:14:00,61.2,50.5,29.88,North,-999,0.0,4.5,68,0.00,,,-99.99,FreeWX 2.04,2013-05-11 15:14:00,
2013-05-11 11:24:00,61.0,49.5,29.88,North,-999,0.0,3.1,66,0.00,,,-99.99,FreeWX 2.04,2013-05-11 15:24:00,
2013-05-11 11:34:00,61.0,49.5,29.88,North,-999,0.0,3.6,66,0.00,,,-99.99,FreeWX 2.04,2013-05-11 15:34:00,
2013-05-11 11:44:00,60.8,48.2,29.88,North,-999,0.0,4.5,63,0.00,,,-99.99,FreeWX 2.04,2013-05-11 15:44:00,
2013-05-11 11:54:00,60.6,47.5,29.88,North,-999,0.0,5.4,62,0.00,,,-99.99,FreeWX 2.04,2013-05-11 15:54:00,
2013-05-11 12:04:00,60.4,47.8,29.88,North,-999,0.0,4.9,63,0.00,,,-99.99,FreeWX 2.04,2013-05-11 16:04:00,
2013-05-11 12:14:00,60.4,47.3,29.88,North,-999,0.0,4.0,62,0.00,,,-99.99,FreeWX 2.04,2013-05-11 16:14:00,
2013-05-11 12:24:00,60.4,47.3,29.88,North,-999,0.0,3.6,62,0.00,,,-99.99,FreeWX 2.04,2013-05-11 16:24:00,
2013-05-11 12:34:00,60.4,46.9,29.88,North,-999,0.0,5.4,61,0.00,,,-99.99,FreeWX 2.04,2013-05-11 16:34:00,
2013-05-11 12:44:00,60.4,46.9,29.88,North,-999,0.0,4.9,61,0.00,,,-99.99,FreeWX 2.04,2013-05-11 16:44:00,
2013-05-11 12:54:00,60.1,46.2,29.88,North,-999,0.0,5.8,60,0.00,,,-99.99,FreeWX 2.04,2013-05-11 16:54:00,
2013-05-11 13:04:00,60.1,46.2,29.88,ENE,63,1.0,5.8,60,0.00,,,-99.99,FreeWX 2.04,2013-05-11 17:04:00,
2013-05-11 13:14:00,60.8,46.8,29.88,NNE,25,1.0,6.9,60,0.00,,,-99.99,FreeWX 2.04,2013-05-11 17:14:00,
2013-05-11 13:24:00,61.5,47.1,29.88,SSE,148,1.0,5.8,59,0.00,,,-99.99,FreeWX 2.04,2013-05-11 17:24:00,
2013-05-11 13:34:00,61.9,46.0,29.88,ESE,108,1.0,5.8,56,0.00,,,-99.99,FreeWX 2.04,2013-05-11 17:34:00,
2013-05-11 13:44:00,62.1,45.1,29.88,North,-999,0.0,4.9,54,0.00,,,-99.99,FreeWX 2.04,2013-05-11 17:44:00,
2013-05-11 13:54:00,61.9,44.1,29.88,North,354,1.0,6.9,52,0.00,,,-99.99,FreeWX 2.04,2013-05-11 17:54:00,
2013-05-11 14:04:00,61.7,44.4,29.88,East,97,1.0,6.9,53,0.00,,,-99.99,FreeWX 2.04,2013-05-11 18:04:00,
2013-05-11 14:14:00,62.1,44.8,29.88,North,-999,0.0,6.7,53,0.00,,,-99.99,FreeWX 2.04,2013-05-11 18:14:00,
2013-05-11 14:24:00,61.9,44.1,29.88,North,-999,0.0,3.6,52,0.00,,,-99.99,FreeWX 2.04,2013-05-11 18:24:00,
2013-05-11 14:34:00,61.9,43.5,29.88,North,-999,0.0,6.7,51,0.00,,,-99.99,FreeWX 2.04,2013-05-11 18:34:00,
2013-05-11 14:44:00,61.9,42.4,29.88,SE,135,1.0,6.3,49,0.00,,,-99.99,FreeWX 2.04,2013-05-11 18:44:00,
2013-05-11 14:54:00,61.9,42.4,29.88,SSE,153,1.0,5.8,49,0.00,,,-99.99,FreeWX 2.04,2013-05-11 18:54:00,
2013-05-11 15:04:00,63.1,42.6,29.88,West,270,2.0,6.3,47,0.00,,,-99.99,FreeWX 2.04,2013-05-11 19:04:00,
2013-05-11 15:14:00,62.8,41.2,29.88,ESE,108,1.0,5.8,45,0.00,,,-99.99,FreeWX 2.04,2013-05-11 19:14:00,
2013-05-11 15:24:00,64.0,43.3,29.88,NE,36,1.0,5.8,47,0.00,,,-99.99,FreeWX 2.04,2013-05-11 19:24:00,
2013-05-11 15:34:00,65.3,42.3,29.88,NNE,15,2.0,7.8,43,0.00,,,-99.99,FreeWX 2.04,2013-05-11 19:34:00,
2013-05-11 15:44:00,65.5,40.5,29.88,East,97,2.0,6.7,40,0.00,,,-99.99,FreeWX 2.04,2013-05-11 19:44:00,
2013-05-11 15:54:00,66.4,39.4,29.88,North,5,3.0,10.1,37,0.00,,,-99.99,FreeWX 2.04,2013-05-11 19:54:00,
2013-05-11 16:04:00,66.0,39.0,29.88,NNE,19,2.0,7.8,37,0.00,,,-99.99,FreeWX 2.04,2013-05-11 20:04:00,
2013-05-11 16:14:00,65.3,37.6,29.88,NNE,19,3.0,7.4,36,0.00,,,-99.99,FreeWX 2.04,2013-05-11 20:14:00,
2013-05-11 16:24:00,63.9,37.0,29.88,ESE,116,2.0,6.7,37,0.00,,,-99.99,FreeWX 2.04,2013-05-11 20:24:00,
2013-05-11 16:34:00,63.3,39.2,29.88,East,96,1.0,4.9,41,0.00,,,-99.99,FreeWX 2.04,2013-05-11 20:34:00,
2013-05-11 16:44:00,63.0,40.1,29.88,ENE,72,1.0,8.7,43,0.00,,,-99.99,FreeWX 2.04,2013-05-11 20:44:00,
2013-05-11 16:54:00,62.6,39.7,29.88,North,-999,0.0,5.4,43,0.00,,,-99.99,FreeWX 2.04,2013-05-11 20:54:00,
2013-05-11 17:05:00,62.8,40.5,29.88,East,85,1.0,6.7,44,0.00,,,-99.99,FreeWX 2.04,2013-05-11 21:05:00,
2013-05-11 17:15:00,63.0,40.1,29.88,East,99,1.0,6.9,43,0.00,,,-99.99,FreeWX 2.04,2013-05-11 21:15:00,
2013-05-11 17:25:00,63.0,38.8,29.88,SSE,155,1.0,10.1,41,0.00,,,-99.99,FreeWX 2.04,2013-05-11 21:25:00,
2013-05-11 17:35:00,63.0,38.3,29.88,ESE,110,1.0,6.3,40,0.00,,,-99.99,FreeWX 2.04,2013-05-11 21:35:00,
2013-05-11 17:45:00,62.1,37.4,29.88,SE,124,2.0,6.3,40,0.00,,,-99.99,FreeWX 2.04,2013-05-11 21:45:00,
2013-05-11 17:55:00,62.1,38.7,29.88,South,176,2.0,6.3,42,0.00,,,-99.99,FreeWX 2.04,2013-05-11 21:55:00,
2013-05-11 18:05:00,61.9,37.9,29.88,ESE,119,2.0,5.8,41,0.00,,,-99.99,FreeWX 2.04,2013-05-11 22:05:00,
2013-05-11 18:15:00,61.5,37.6,29.88,East,83,1.0,5.4,41,0.00,,,-99.99,FreeWX 2.04,2013-05-11 22:15:00,
2013-05-11 18:25:00,61.0,37.8,29.88,North,-999,0.0,4.0,42,0.00,,,-99.99,FreeWX 2.04,2013-05-11 22:25:00,
2013-05-11 18:35:00,60.8,37.6,29.88,North,-999,0.0,5.4,42,0.00,,,-99.99,FreeWX 2.04,2013-05-11 22:35:00,
2013-05-11 18:45:00,61.2,38.5,29.88,North,350,1.0,5.8,43,0.00,,,-99.99,FreeWX 2.04,2013-05-11 22:45:00,
2013-05-11 18:55:00,60.8,37.6,29.88,ESE,109,1.0,4.9,42,0.00,,,-99.99,FreeWX 2.04,2013-05-11 22:55:00,
2013-05-11 19:05:00,60.8,38.1,29.88,North,-999,0.0,4.5,43,0.00,,,-99.99,FreeWX 2.04,2013-05-11 23:05:00,
2013-05-11 19:15:00,60.4,37.8,29.88,North,-999,0.0,5.8,43,0.00,,,-99.99,FreeWX 2.04,2013-05-11 23:15:00,
2013-05-11 19:25:00,60.1,36.9,29.88,NE,54,1.0,6.7,42,0.00,,,-99.99,FreeWX 2.04,2013-05-11 23:25:00,
2013-05-11 19:35:00,59.7,36.5,29.91,North,-999,0.0,5.8,42,0.00,,,-99.99,FreeWX 2.04,2013-05-11 23:35:00,
2013-05-11 19:45:00,59.4,36.9,29.91,North,-999,0.0,4.9,43,0.00,,,-99.99,FreeWX 2.04,2013-05-11 23:45:00,
2013-05-11 19:55:00,59.2,36.7,29.88,North,-999,0.0,4.9,43,0.00,,,-99.99,FreeWX 2.04,2013-05-11 23:55:00,
2013-05-11 20:05:00,58.8,37.0,29.88,North,-999,0.0,3.6,44,0.00,,,-99.99,FreeWX 2.04,2013-05-12 00:05:00,
2013-05-11 20:15:00,58.3,37.0,29.88,North,-999,0.0,3.6,45,0.00,,,-99.99,FreeWX 2.04,2013-05-12 00:15:00,
2013-05-11 20:25:00,57.7,37.6,29.91,North,-999,0.0,0.0,47,0.00,,,-99.99,FreeWX 2.04,2013-05-12 00:25:00,
2013-05-11 20:35:00,57.2,37.8,29.91,North,-999,0.0,0.0,48,0.00,,,-99.99,FreeWX 2.04,2013-05-12 00:35:00,
2013-05-11 20:45:00,56.7,37.8,29.91,North,-999,0.0,0.0,49,0.00,,,-99.99,FreeWX 2.04,2013-05-12 00:45:00,
2013-05-11 20:55:00,56.3,37.4,29.91,North,-999,0.0,0.0,49,0.00,,,-99.99,FreeWX 2.04,2013-05-12 00:55:00,
2013-05-11 21:05:00,55.8,37.9,29.91,North,-999,0.0,0.0,51,0.00,,,-99.99,FreeWX 2.04,2013-05-12 01:05:00,
2013-05-11 21:15:00,55.4,37.6,29.91,North,-999,0.0,0.0,51,0.00,,,-99.99,FreeWX 2.04,2013-05-12 01:15:00,
2013-05-11 21:25:00,54.9,37.6,29.91,North,-999,0.0,0.0,52,0.00,,,-99.99,FreeWX 2.04,2013-05-12 01:25:00,
2013-05-11 21:35:00,54.5,37.2,29.91,North,-999,0.0,0.0,52,0.00,,,-99.99,FreeWX 2.04,2013-05-12 01:35:00,
2013-05-11 21:45:00,54.1,37.4,29.91,North,-999,0.0,0.0,53,0.00,,,-99.99,FreeWX 2.04,2013-05-12 01:45:00,
2013-05-11 21:55:00,53.8,37.6,29.91,North,-999,0.0,0.0,54,0.00,,,-99.99,FreeWX 2.04,2013-05-12 01:55:00,
2013-05-11 22:05:00,53.2,37.0,29.91,North,-999,0.0,0.0,54,0.00,,,-99.99,FreeWX 2.04,2013-05-12 02:05:00,
2013-05-11 22:15:00,53.1,36.9,29.91,North,-999,0.0,0.0,54,0.00,,,-99.99,FreeWX 2.04,2013-05-12 02:15:00,
2013-05-11 22:25:00,53.1,37.4,29.94,North,-999,0.0,0.0,55,0.00,,,-99.99,FreeWX 2.04,2013-05-12 02:25:00,
2013-05-11 22:35:00,52.7,37.0,29.94,North,-999,0.0,0.0,55,0.00,,,-99.99,FreeWX 2.04,2013-05-12 02:35:00,
2013-05-11 22:45:00,52.5,37.2,29.94,North,-999,0.0,0.0,56,0.00,,,-99.99,FreeWX 2.04,2013-05-12 02:45:00,
2013-05-11 22:55:00,52.3,37.0,29.94,North,-999,0.0,0.0,56,0.00,,,-99.99,FreeWX 2.04,2013-05-12 02:55:00,
2013-05-11 23:05:00,52.0,36.9,29.94,North,-999,0.0,0.0,56,0.00,,,-99.99,FreeWX 2.04,2013-05-12 03:05:00,
2013-05-11 23:15:00,52.0,37.2,29.94,North,-999,0.0,0.0,57,0.00,,,-99.99,FreeWX 2.04,2013-05-12 03:15:00,
2013-05-11 23:25:00,52.0,37.6,29.94,North,-999,0.0,0.0,58,0.00,,,-99.99,FreeWX 2.04,2013-05-12 03:25:00,
2013-05-11 23:35:00,52.0,38.1,29.94,North,-999,0.0,0.0,59,0.00,,,-99.99,FreeWX 2.04,2013-05-12 03:35:00,
2013-05-11 23:45:00,52.0,38.1,29.94,North,-999,0.0,0.0,59,0.00,,,-99.99,FreeWX 2.04,2013-05-12 03:45:00,
2013-05-11 23:55:00,52.2,38.7,29.94,North,-999,0.0,0.0,60,0.00,,,-99.99,FreeWX 2.04,2013-05-12 03:55:00,